createdAt,value
2017-01-19T00:00:03.019Z,1021.82
2017-01-19T00:00:24.734Z,1021.90
2017-01-19T00:00:51.209Z,1021.97
2017-01-19T00:01:12.918Z,1021.89
2017-01-19T00:01:34.621Z,1021.95
2017-01-19T00:01:56.336Z,1021.98
2017-01-19T00:02:18.110Z,1021.87
2017-01-19T00:02:39.816Z,1022.00
2017-01-19T00:03:06.291Z,1021.88
2017-01-19T00:03:27.997Z,1022.00
2017-01-19T00:04:20.954Z,1021.88
2017-01-19T00:05:16.704Z,1021.88
2017-01-19T00:05:43.178Z,1021.94
2017-01-19T00:06:06.108Z,1021.92
2017-01-19T00:06:32.592Z,1021.91
2017-01-19T00:06:54.387Z,1021.93
2017-01-19T00:07:20.947Z,1021.81
2017-01-19T00:07:42.648Z,1021.94
2017-01-19T00:08:04.358Z,1021.85
2017-01-19T00:08:26.060Z,1021.89
2017-01-19T00:08:52.636Z,1021.92
2017-01-19T00:09:14.411Z,1021.91
2017-01-19T00:09:43.797Z,1021.95
2017-01-19T00:10:05.496Z,1021.85
2017-01-19T00:10:31.966Z,1021.79
2017-01-19T00:10:53.670Z,1021.79
2017-01-19T00:13:08.273Z,1021.87
2017-01-19T00:13:32.596Z,1021.89
2017-01-19T00:13:57.052Z,1021.84
2017-01-19T00:14:23.537Z,1021.84
2017-01-19T00:14:45.247Z,1021.90
2017-01-19T00:15:11.832Z,1021.90
2017-01-19T00:15:33.531Z,1021.88
2017-01-19T00:16:00.014Z,1021.97
2017-01-19T00:16:21.726Z,1021.93
2017-01-19T00:16:43.552Z,1021.92
2017-01-19T00:17:12.994Z,1021.93
2017-01-19T00:17:34.714Z,1021.89
2017-01-19T00:18:01.210Z,1021.82
2017-01-19T00:18:22.917Z,1021.82
2017-01-19T00:18:44.628Z,1021.79
2017-01-19T00:19:37.578Z,1021.83
2017-01-19T00:20:30.555Z,1021.82
2017-01-19T00:20:52.337Z,1021.85
2017-01-19T00:21:14.043Z,1021.86
2017-01-19T00:21:35.742Z,1021.86
2017-01-19T00:21:57.527Z,1021.87
2017-01-19T00:22:19.225Z,1021.80
2017-01-19T00:22:40.929Z,1021.81
2017-01-19T00:23:07.427Z,1021.87
2017-01-19T00:23:29.117Z,1021.79
2017-01-19T00:23:50.820Z,1021.79
2017-01-19T00:24:12.526Z,1021.85
2017-01-19T00:24:34.214Z,1021.88
2017-01-19T00:24:55.924Z,1021.69
2017-01-19T00:25:22.493Z,1021.80
2017-01-19T00:25:44.215Z,1021.87
2017-01-19T00:26:10.784Z,1021.75
2017-01-19T00:26:32.489Z,1021.86
2017-01-19T00:27:25.441Z,1021.83
2017-01-19T00:27:47.152Z,1021.83
2017-01-19T00:28:08.862Z,1021.80
2017-01-19T00:28:30.657Z,1021.71
2017-01-19T00:28:52.365Z,1021.74
2017-01-19T00:29:16.919Z,1021.79
2017-01-19T00:29:38.640Z,1021.70
2017-01-19T00:30:00.344Z,1021.82
2017-01-19T00:30:22.054Z,1021.72
2017-01-19T00:30:43.780Z,1021.79
2017-01-19T00:31:36.745Z,1021.77
2017-01-19T00:31:58.447Z,1021.70
2017-01-19T00:32:20.170Z,1021.77
2017-01-19T00:32:41.862Z,1021.75
2017-01-19T00:33:03.572Z,1021.85
2017-01-19T00:33:56.521Z,1021.82
2017-01-19T00:34:18.326Z,1021.88
2017-01-19T00:35:06.593Z,1021.74
2017-01-19T00:35:28.393Z,1021.87
2017-01-19T00:36:30.909Z,1021.88
2017-01-19T00:36:52.604Z,1021.84
2017-01-19T00:37:14.326Z,1021.98
2017-01-19T00:37:38.646Z,1021.96
2017-01-19T00:38:00.344Z,1021.91
2017-01-19T00:38:22.045Z,1021.84
2017-01-19T00:38:48.525Z,1021.85
2017-01-19T00:39:10.234Z,1021.93
2017-01-19T00:39:31.938Z,1021.89
2017-01-19T00:39:58.432Z,1021.90
2017-01-19T00:40:20.124Z,1021.92
2017-01-19T00:40:46.613Z,1021.85
2017-01-19T00:41:08.303Z,1021.95
2017-01-19T00:41:30.143Z,1021.82
2017-01-19T00:42:23.007Z,1021.91
2017-01-19T00:42:49.480Z,1021.97
2017-01-19T00:43:11.176Z,1021.95
2017-01-19T00:43:32.987Z,1021.85
2017-01-19T00:43:59.470Z,1021.96
2017-01-19T00:44:21.170Z,1021.88
2017-01-19T00:44:47.643Z,1021.86
2017-01-19T00:45:09.350Z,1021.81
2017-01-19T00:45:35.830Z,1021.88
2017-01-19T00:46:05.128Z,1021.96
2017-01-19T00:46:26.827Z,1021.94
2017-01-19T00:46:48.523Z,1021.88
2017-01-19T00:47:10.236Z,1021.85
2017-01-19T00:47:36.792Z,1021.93
2017-01-19T00:48:03.269Z,1021.81
2017-01-19T00:48:29.748Z,1021.90
2017-01-19T00:48:51.446Z,1021.94
2017-01-19T00:49:13.153Z,1021.87
2017-01-19T00:49:34.859Z,1021.93
2017-01-19T00:49:56.568Z,1021.93
2017-01-19T00:50:18.252Z,1022.02
2017-01-19T00:51:21.341Z,1021.88
2017-01-19T00:51:43.029Z,1021.87
2017-01-19T00:52:12.193Z,1021.92
2017-01-19T00:52:33.858Z,1021.92
2017-01-19T00:53:26.832Z,1021.87
2017-01-19T00:53:48.542Z,1021.94
2017-01-19T00:54:10.250Z,1021.93
2017-01-19T00:54:31.967Z,1021.76
2017-01-19T00:54:53.672Z,1021.85
2017-01-19T00:55:15.373Z,1021.81
2017-01-19T00:55:37.294Z,1021.81
2017-01-19T00:56:01.594Z,1021.96
2017-01-19T00:56:23.325Z,1021.91
2017-01-19T00:56:45.044Z,1021.84
2017-01-19T00:57:16.296Z,1021.79
2017-01-19T00:57:40.984Z,1021.87
2017-01-19T00:58:02.699Z,1021.94
2017-01-19T00:58:24.414Z,1021.85
2017-01-19T00:58:46.122Z,1021.92
2017-01-19T00:59:10.814Z,1021.82
2017-01-19T00:59:32.606Z,1021.82
2017-01-19T00:59:54.321Z,1021.82
2017-01-19T01:00:16.031Z,1021.81
2017-01-19T01:01:18.541Z,1021.78
2017-01-19T01:01:40.274Z,1021.82
2017-01-19T01:02:02.096Z,1021.88
2017-01-19T01:02:26.564Z,1021.79
2017-01-19T01:02:48.714Z,1021.77
2017-01-19T01:03:10.576Z,1021.75
2017-01-19T01:03:32.502Z,1021.86
2017-01-19T01:03:54.443Z,1021.81
2017-01-19T01:04:16.425Z,1021.76
2017-01-19T01:04:38.279Z,1021.81
2017-01-19T01:05:00.371Z,1021.74
2017-01-19T01:05:22.420Z,1021.82
2017-01-19T01:05:44.557Z,1021.79
2017-01-19T01:06:06.730Z,1021.86
2017-01-19T01:06:28.761Z,1021.91
2017-01-19T01:06:50.644Z,1021.76
2017-01-19T01:07:13.055Z,1021.77
2017-01-19T01:07:34.806Z,1021.81
2017-01-19T01:07:57.043Z,1021.79
2017-01-19T01:08:19.095Z,1021.90
2017-01-19T01:08:41.041Z,1021.89
2017-01-19T01:09:02.999Z,1021.79
2017-01-19T01:09:24.934Z,1021.82
2017-01-19T01:09:46.947Z,1021.82
2017-01-19T01:10:08.955Z,1021.86
2017-01-19T01:10:30.836Z,1021.88
2017-01-19T01:10:52.599Z,1021.91
2017-01-19T01:11:14.362Z,1021.93
2017-01-19T01:11:36.212Z,1021.81
2017-01-19T01:12:03.244Z,1021.91
2017-01-19T01:12:25.055Z,1021.94
2017-01-19T01:12:46.908Z,1021.83
2017-01-19T01:13:08.830Z,1021.90
2017-01-19T01:13:30.767Z,1021.79
2017-01-19T01:13:52.768Z,1021.85
2017-01-19T01:14:14.765Z,1021.91
2017-01-19T01:14:36.589Z,1021.89
2017-01-19T01:14:58.326Z,1021.72
2017-01-19T01:15:20.237Z,1021.79
2017-01-19T01:15:42.272Z,1021.84
2017-01-19T01:16:04.150Z,1021.78
2017-01-19T01:17:12.591Z,1021.73
2017-01-19T01:17:34.464Z,1021.95
2017-01-19T01:17:56.238Z,1021.82
2017-01-19T01:18:54.607Z,1021.87
2017-01-19T01:19:16.546Z,1021.81
2017-01-19T01:19:38.447Z,1021.78
2017-01-19T01:20:00.457Z,1021.80
2017-01-19T01:20:27.128Z,1021.79
2017-01-19T01:20:49.238Z,1021.77
2017-01-19T01:21:11.122Z,1021.78
2017-01-19T01:21:33.231Z,1021.87
2017-01-19T01:21:55.257Z,1021.90
2017-01-19T01:22:17.006Z,1021.86
2017-01-19T01:22:39.096Z,1021.86
2017-01-19T01:23:01.142Z,1021.81
2017-01-19T01:23:27.781Z,1021.77
2017-01-19T01:23:49.942Z,1021.92
2017-01-19T01:24:16.613Z,1021.83
2017-01-19T01:24:38.729Z,1021.90
2017-01-19T01:25:06.325Z,1021.89
2017-01-19T01:25:30.705Z,1021.92
2017-01-19T01:25:52.877Z,1021.98
2017-01-19T01:26:19.366Z,1021.77
2017-01-19T01:26:45.940Z,1021.75
2017-01-19T01:27:08.027Z,1021.87
2017-01-19T01:27:30.044Z,1021.84
2017-01-19T01:27:52.415Z,1021.86
2017-01-19T01:28:45.857Z,1021.92
2017-01-19T01:29:58.143Z,1021.89
2017-01-19T01:30:20.069Z,1021.89
2017-01-19T01:30:44.616Z,1021.90
2017-01-19T01:31:11.112Z,1021.76
2017-01-19T01:31:33.964Z,1021.98
2017-01-19T01:31:55.707Z,1021.78
2017-01-19T01:32:17.476Z,1021.86
2017-01-19T01:35:50.900Z,1021.89
2017-01-19T01:36:12.645Z,1021.89
2017-01-19T01:36:34.381Z,1021.91
2017-01-19T01:36:56.123Z,1021.83
2017-01-19T01:37:17.860Z,1021.99
2017-01-19T01:37:39.594Z,1021.89
2017-01-19T01:38:01.332Z,1021.90
2017-01-19T01:38:23.089Z,1021.91
2017-01-19T01:38:44.929Z,1021.97
2017-01-19T01:39:06.686Z,1021.91
2017-01-19T01:39:28.465Z,1021.86
2017-01-19T01:39:50.173Z,1021.86
2017-01-19T01:40:11.905Z,1021.82
2017-01-19T01:40:33.656Z,1021.89
2017-01-19T01:40:55.391Z,1021.86
2017-01-19T01:41:17.132Z,1021.80
2017-01-19T01:41:38.877Z,1021.91
2017-01-19T01:42:00.629Z,1021.91
2017-01-19T01:42:22.363Z,1021.93
2017-01-19T01:42:44.097Z,1021.89
2017-01-19T01:43:05.834Z,1021.86
2017-01-19T01:43:27.636Z,1021.78
2017-01-19T01:43:49.370Z,1021.88
2017-01-19T01:44:11.109Z,1021.93
2017-01-19T01:44:32.840Z,1021.90
2017-01-19T01:44:54.578Z,1021.84
2017-01-19T01:45:16.345Z,1021.71
2017-01-19T01:45:38.090Z,1021.83
2017-01-19T01:45:59.841Z,1021.82
2017-01-19T01:46:21.612Z,1021.71
2017-01-19T01:46:43.367Z,1021.77
2017-01-19T01:47:05.107Z,1021.78
2017-01-19T01:47:26.848Z,1021.77
2017-01-19T01:47:48.677Z,1021.77
2017-01-19T01:48:10.429Z,1021.80
2017-01-19T01:48:32.170Z,1021.83
2017-01-19T01:48:53.907Z,1021.72
2017-01-19T01:49:15.641Z,1021.78
2017-01-19T01:49:37.380Z,1021.73
2017-01-19T01:49:59.114Z,1021.81
2017-01-19T01:50:20.849Z,1021.83
2017-01-19T01:50:42.608Z,1021.80
2017-01-19T01:51:04.366Z,1021.75
2017-01-19T01:51:26.106Z,1021.73
2017-01-19T01:51:47.854Z,1021.65
2017-01-19T01:52:09.611Z,1021.74
2017-01-19T01:52:31.390Z,1021.76
2017-01-19T01:52:53.130Z,1021.81
2017-01-19T01:53:14.877Z,1021.77
2017-01-19T01:53:36.618Z,1021.78
2017-01-19T01:53:58.348Z,1021.67
2017-01-19T01:54:20.085Z,1021.78
2017-01-19T01:54:41.828Z,1021.87
2017-01-19T01:55:03.605Z,1021.84
2017-01-19T01:55:25.339Z,1021.80
2017-01-19T01:55:47.080Z,1021.71
2017-01-19T01:56:08.834Z,1021.84
2017-01-19T01:56:30.572Z,1021.83
2017-01-19T01:56:52.326Z,1021.79
2017-01-19T01:57:14.166Z,1021.75
2017-01-19T01:57:35.897Z,1021.83
2017-01-19T01:57:57.637Z,1021.76
2017-01-19T01:58:19.378Z,1021.86
2017-01-19T01:58:41.119Z,1021.90
2017-01-19T01:59:02.857Z,1021.82
2017-01-19T01:59:24.604Z,1021.72
2017-01-19T01:59:46.332Z,1021.76
2017-01-19T02:00:08.067Z,1021.92
2017-01-19T02:00:29.818Z,1021.94
2017-01-19T02:00:51.557Z,1021.92
2017-01-19T02:01:13.306Z,1021.73
2017-01-19T02:01:35.056Z,1021.91
2017-01-19T02:01:56.873Z,1021.82
2017-01-19T02:02:18.607Z,1021.93
2017-01-19T02:02:40.352Z,1021.95
2017-01-19T02:03:02.091Z,1021.74
2017-01-19T02:03:23.818Z,1021.81
2017-01-19T02:03:48.368Z,1021.95
2017-01-19T02:04:10.109Z,1021.89
2017-01-19T02:04:31.842Z,1021.97
2017-01-19T02:04:53.575Z,1021.93
2017-01-19T02:05:15.313Z,1021.93
2017-01-19T02:05:37.051Z,1021.74
2017-01-19T02:05:58.794Z,1021.89
2017-01-19T02:06:20.539Z,1021.96
2017-01-19T02:06:42.293Z,1021.90
2017-01-19T02:07:04.036Z,1021.92
2017-01-19T02:07:25.789Z,1021.83
2017-01-19T02:07:47.521Z,1021.76
2017-01-19T02:08:09.253Z,1021.92
2017-01-19T02:08:30.987Z,1021.98
2017-01-19T02:08:52.729Z,1021.87
2017-01-19T02:09:14.474Z,1021.82
2017-01-19T02:09:36.197Z,1021.85
2017-01-19T02:09:57.944Z,1021.82
2017-01-19T02:10:19.671Z,1021.83
2017-01-19T02:10:41.563Z,1021.87
2017-01-19T02:11:03.298Z,1021.73
2017-01-19T02:11:25.032Z,1021.84
2017-01-19T02:11:46.809Z,1021.91
2017-01-19T02:12:08.575Z,1021.83
2017-01-19T02:12:30.309Z,1021.81
2017-01-19T02:12:52.121Z,1021.75
2017-01-19T02:13:13.859Z,1021.74
2017-01-19T02:13:35.593Z,1021.79
2017-01-19T02:13:57.330Z,1021.88
2017-01-19T02:14:19.068Z,1021.88
2017-01-19T02:14:40.799Z,1021.93
2017-01-19T02:15:02.534Z,1021.77
2017-01-19T02:15:24.266Z,1021.76
2017-01-19T02:15:45.997Z,1021.77
2017-01-19T02:16:07.741Z,1021.91
2017-01-19T02:16:29.482Z,1021.81
2017-01-19T02:16:51.264Z,1021.88
2017-01-19T02:17:15.212Z,1021.89
2017-01-19T02:17:36.954Z,1021.80
2017-01-19T02:17:58.693Z,1021.88
2017-01-19T02:18:20.429Z,1021.82
2017-01-19T02:18:42.166Z,1021.80
2017-01-19T02:19:03.898Z,1021.80
2017-01-19T02:19:25.681Z,1021.93
2017-01-19T02:19:47.496Z,1021.93
2017-01-19T02:20:09.236Z,1021.89
2017-01-19T02:20:30.975Z,1021.91
2017-01-19T02:20:52.696Z,1021.99
2017-01-19T02:21:14.433Z,1022.00
2017-01-19T02:21:36.183Z,1021.96
2017-01-19T02:21:57.957Z,1021.96
2017-01-19T02:22:19.687Z,1021.85
2017-01-19T02:22:41.417Z,1021.87
2017-01-19T02:23:03.158Z,1021.91
2017-01-19T02:23:24.892Z,1021.90
2017-01-19T02:23:46.624Z,1021.87
2017-01-19T02:24:08.361Z,1021.81
2017-01-19T02:24:30.105Z,1021.87
2017-01-19T02:24:51.837Z,1021.94
2017-01-19T02:25:13.581Z,1021.99
2017-01-19T02:25:35.325Z,1021.96
2017-01-19T02:25:57.058Z,1021.93
2017-01-19T02:26:18.791Z,1021.92
2017-01-19T02:26:40.564Z,1021.88
2017-01-19T02:27:02.304Z,1021.91
2017-01-19T02:27:24.048Z,1021.98
2017-01-19T02:27:45.803Z,1021.92
2017-01-19T02:28:07.540Z,1021.92
2017-01-19T02:28:29.277Z,1021.95
2017-01-19T02:28:51.013Z,1021.99
2017-01-19T02:29:12.752Z,1021.94
2017-01-19T02:29:34.482Z,1022.01
2017-01-19T02:29:56.219Z,1021.94
2017-01-19T02:30:17.995Z,1021.93
2017-01-19T02:30:39.707Z,1021.96
2017-01-19T02:31:01.442Z,1022.01
2017-01-19T02:31:23.289Z,1021.96
2017-01-19T02:31:45.010Z,1021.93
2017-01-19T02:32:06.790Z,1021.95
2017-01-19T02:32:28.539Z,1022.01
2017-01-19T02:32:50.277Z,1021.91
2017-01-19T02:33:12.013Z,1021.91
2017-01-19T02:33:33.769Z,1021.94
2017-01-19T02:33:55.498Z,1022.00
2017-01-19T02:34:17.243Z,1021.91
2017-01-19T02:34:38.966Z,1021.95
2017-01-19T02:35:00.710Z,1021.97
2017-01-19T02:35:22.441Z,1022.03
2017-01-19T02:35:44.182Z,1021.90
2017-01-19T02:36:05.924Z,1021.83
2017-01-19T02:36:27.662Z,1021.94
2017-01-19T02:36:49.396Z,1021.97
2017-01-19T02:37:11.152Z,1021.96
2017-01-19T02:37:32.907Z,1022.03
2017-01-19T02:37:54.647Z,1022.08
2017-01-19T02:38:16.396Z,1021.97
2017-01-19T02:38:38.122Z,1022.02
2017-01-19T02:38:59.864Z,1021.92
2017-01-19T02:39:21.604Z,1022.05
2017-01-19T02:39:43.339Z,1022.06
2017-01-19T02:40:05.075Z,1022.05
2017-01-19T02:40:26.813Z,1022.01
2017-01-19T02:40:48.551Z,1022.07
2017-01-19T02:41:10.288Z,1022.03
2017-01-19T02:41:32.021Z,1022.12
2017-01-19T02:41:53.759Z,1022.00
2017-01-19T02:42:15.498Z,1021.94
2017-01-19T02:42:37.244Z,1022.06
2017-01-19T02:42:59.026Z,1022.05
2017-01-19T02:43:20.779Z,1022.02
2017-01-19T02:43:42.533Z,1022.09
2017-01-19T02:44:04.265Z,1022.05
2017-01-19T02:44:26.005Z,1022.08
2017-01-19T02:44:47.757Z,1022.20
2017-01-19T02:45:09.616Z,1022.05
2017-01-19T02:45:31.353Z,1022.11
2017-01-19T02:45:53.096Z,1022.09
2017-01-19T02:46:14.839Z,1022.06
2017-01-19T02:46:36.581Z,1022.03
2017-01-19T02:46:58.323Z,1021.99
2017-01-19T02:47:20.052Z,1022.07
2017-01-19T02:47:41.817Z,1022.12
2017-01-19T02:48:03.564Z,1022.08
2017-01-19T02:48:25.318Z,1022.11
2017-01-19T02:48:47.072Z,1022.14
2017-01-19T02:49:08.804Z,1022.06
2017-01-19T02:49:30.545Z,1022.09
2017-01-19T02:49:52.287Z,1022.08
2017-01-19T02:50:14.029Z,1022.08
2017-01-19T02:50:35.777Z,1022.04
2017-01-19T02:50:57.508Z,1022.01
2017-01-19T02:51:19.249Z,1022.06
2017-01-19T02:51:40.977Z,1022.01
2017-01-19T02:52:02.723Z,1021.97
2017-01-19T02:52:24.463Z,1022.10
2017-01-19T02:52:46.207Z,1022.08
2017-01-19T02:53:07.941Z,1022.06
2017-01-19T02:53:29.688Z,1022.13
2017-01-19T02:53:54.060Z,1021.80
2017-01-19T02:54:15.796Z,1021.90
2017-01-19T02:54:37.528Z,1022.03
2017-01-19T02:54:59.273Z,1022.06
2017-01-19T02:55:21.013Z,1021.99
2017-01-19T02:55:42.751Z,1022.03
2017-01-19T02:56:04.482Z,1022.06
2017-01-19T02:56:26.217Z,1022.04
2017-01-19T02:56:47.964Z,1022.06
2017-01-19T02:57:09.711Z,1022.07
2017-01-19T02:57:31.449Z,1022.16
2017-01-19T02:57:53.201Z,1022.11
2017-01-19T02:58:14.940Z,1022.03
2017-01-19T02:58:36.700Z,1022.10
2017-01-19T02:58:58.438Z,1022.04
2017-01-19T02:59:20.171Z,1022.05
2017-01-19T02:59:41.922Z,1022.06
2017-01-19T03:00:03.666Z,1022.09
2017-01-19T03:00:25.404Z,1022.03
2017-01-19T03:00:47.144Z,1022.11
2017-01-19T03:01:09.006Z,1022.06
2017-01-19T03:01:30.745Z,1022.02
2017-01-19T03:01:52.482Z,1022.11
2017-01-19T03:02:14.221Z,1022.08
2017-01-19T03:02:35.974Z,1022.00
2017-01-19T03:02:57.716Z,1022.09
2017-01-19T03:03:19.508Z,1022.13
2017-01-19T03:03:41.259Z,1022.18
2017-01-19T03:04:03.011Z,1022.10
2017-01-19T03:04:24.752Z,1022.13
2017-01-19T03:04:46.480Z,1022.01
2017-01-19T03:05:08.219Z,1022.15
2017-01-19T03:05:29.959Z,1022.10
2017-01-19T03:05:51.758Z,1022.06
2017-01-19T03:06:13.502Z,1022.08
2017-01-19T03:06:35.230Z,1022.13
2017-01-19T03:06:56.979Z,1022.07
2017-01-19T03:07:18.720Z,1022.09
2017-01-19T03:07:40.452Z,1022.12
2017-01-19T03:08:02.200Z,1022.13
2017-01-19T03:08:23.960Z,1022.04
2017-01-19T03:08:45.704Z,1022.03
2017-01-19T03:09:07.457Z,1022.09
2017-01-19T03:09:29.184Z,1022.06
2017-01-19T03:09:50.927Z,1022.09
2017-01-19T03:10:12.686Z,1022.05
2017-01-19T03:10:34.542Z,1022.07
2017-01-19T03:11:01.054Z,1022.02
2017-01-19T03:11:22.791Z,1022.02
2017-01-19T03:11:44.537Z,1022.09
2017-01-19T03:12:06.264Z,1022.09
2017-01-19T03:12:28.005Z,1022.10
2017-01-19T03:12:49.750Z,1022.02
2017-01-19T03:13:11.484Z,1022.03
2017-01-19T03:13:33.234Z,1022.07
2017-01-19T03:13:54.999Z,1021.99
2017-01-19T03:14:16.751Z,1022.04
2017-01-19T03:14:38.502Z,1021.90
2017-01-19T03:15:00.242Z,1021.96
2017-01-19T03:15:21.979Z,1021.90
2017-01-19T03:15:43.715Z,1021.99
2017-01-19T03:16:05.464Z,1022.05
2017-01-19T03:16:27.312Z,1022.08
2017-01-19T03:16:49.118Z,1022.07
2017-01-19T03:17:10.870Z,1021.98
2017-01-19T03:17:32.637Z,1022.01
2017-01-19T03:17:54.389Z,1022.00
2017-01-19T03:18:16.112Z,1022.02
2017-01-19T03:18:37.860Z,1022.03
2017-01-19T03:18:59.602Z,1021.94
2017-01-19T03:19:21.354Z,1021.95
2017-01-19T03:19:45.100Z,1021.93
2017-01-19T03:20:06.850Z,1022.00
2017-01-19T03:20:28.589Z,1021.95
2017-01-19T03:20:50.327Z,1021.99
2017-01-19T03:21:12.081Z,1021.97
2017-01-19T03:21:33.811Z,1022.03
2017-01-19T03:21:55.544Z,1021.99
2017-01-19T03:22:17.286Z,1022.00
2017-01-19T03:22:39.015Z,1021.95
2017-01-19T03:23:00.743Z,1022.01
2017-01-19T03:23:22.492Z,1022.02
2017-01-19T03:23:44.231Z,1021.99
2017-01-19T03:24:05.982Z,1021.97
2017-01-19T03:24:27.722Z,1021.87
2017-01-19T03:24:52.337Z,1022.05
2017-01-19T03:25:14.095Z,1021.93
2017-01-19T03:25:35.835Z,1021.94
2017-01-19T03:25:57.584Z,1021.91
2017-01-19T03:26:19.325Z,1021.98
2017-01-19T03:26:41.079Z,1022.05
2017-01-19T03:27:02.865Z,1022.05
2017-01-19T03:27:24.598Z,1021.97
2017-01-19T03:27:46.329Z,1021.91
2017-01-19T03:28:08.111Z,1021.93
2017-01-19T03:28:29.848Z,1022.03
2017-01-19T03:28:51.605Z,1022.02
2017-01-19T03:29:13.348Z,1021.90
2017-01-19T03:29:35.083Z,1021.84
2017-01-19T03:29:56.830Z,1021.91
2017-01-19T03:30:18.574Z,1021.93
2017-01-19T03:30:40.303Z,1021.98
2017-01-19T03:31:02.041Z,1021.97
2017-01-19T03:31:23.782Z,1021.99
2017-01-19T03:31:45.517Z,1022.02
2017-01-19T03:32:07.265Z,1021.97
2017-01-19T03:32:28.999Z,1021.90
2017-01-19T03:32:50.739Z,1021.93
2017-01-19T03:33:12.506Z,1021.99
2017-01-19T03:33:34.228Z,1021.88
2017-01-19T03:34:00.728Z,1021.93
2017-01-19T03:34:22.483Z,1021.92
2017-01-19T03:34:44.232Z,1021.81
2017-01-19T03:35:05.969Z,1021.86
2017-01-19T03:35:27.729Z,1022.03
2017-01-19T03:35:49.473Z,1021.96
2017-01-19T03:36:11.209Z,1021.99
2017-01-19T03:36:32.947Z,1021.95
2017-01-19T03:36:54.676Z,1022.03
2017-01-19T03:37:16.411Z,1021.94
2017-01-19T03:37:38.229Z,1021.89
2017-01-19T03:37:59.974Z,1021.94
2017-01-19T03:38:21.717Z,1021.95
2017-01-19T03:38:43.455Z,1021.88
2017-01-19T03:39:05.200Z,1021.94
2017-01-19T03:39:26.952Z,1022.04
2017-01-19T03:39:48.696Z,1021.95
2017-01-19T03:40:10.444Z,1021.84
2017-01-19T03:40:32.191Z,1021.87
2017-01-19T03:40:53.925Z,1021.91
2017-01-19T03:41:15.659Z,1021.92
2017-01-19T03:41:37.403Z,1021.98
2017-01-19T03:41:59.139Z,1021.90
2017-01-19T03:42:20.870Z,1021.93
2017-01-19T03:42:42.630Z,1021.82
2017-01-19T03:43:04.367Z,1022.00
2017-01-19T03:43:26.109Z,1021.99
2017-01-19T03:43:47.853Z,1021.88
2017-01-19T03:44:09.583Z,1021.95
2017-01-19T03:44:31.321Z,1021.88
2017-01-19T03:44:53.092Z,1021.88
2017-01-19T03:45:14.841Z,1021.93
2017-01-19T03:45:36.595Z,1021.83
2017-01-19T03:45:58.332Z,1021.86
2017-01-19T03:46:20.069Z,1021.86
2017-01-19T03:46:41.820Z,1021.94
2017-01-19T03:47:03.557Z,1021.90
2017-01-19T03:47:25.292Z,1021.90
2017-01-19T03:47:47.043Z,1021.90
2017-01-19T03:48:08.782Z,1021.89
2017-01-19T03:48:30.515Z,1021.87
2017-01-19T03:48:52.243Z,1021.78
2017-01-19T03:49:14.003Z,1021.93
2017-01-19T03:49:35.732Z,1021.96
2017-01-19T03:49:57.463Z,1021.90
2017-01-19T03:50:19.229Z,1021.93
2017-01-19T03:50:40.972Z,1021.83
2017-01-19T03:51:02.717Z,1021.95
2017-01-19T03:51:24.461Z,1022.03
2017-01-19T03:51:46.198Z,1021.86
2017-01-19T03:52:07.935Z,1021.91
2017-01-19T03:52:29.674Z,1021.84
2017-01-19T03:52:51.405Z,1021.95
2017-01-19T03:53:13.165Z,1021.97
2017-01-19T03:53:34.912Z,1021.91
2017-01-19T03:53:56.666Z,1021.94
2017-01-19T03:54:18.468Z,1021.95
2017-01-19T03:54:40.204Z,1021.93
2017-01-19T03:55:01.970Z,1021.84
2017-01-19T03:55:23.710Z,1021.83
2017-01-19T03:55:45.470Z,1021.90
2017-01-19T03:56:07.199Z,1021.92
2017-01-19T03:56:28.982Z,1022.05
2017-01-19T03:56:50.715Z,1021.85
2017-01-19T03:57:12.451Z,1021.82
2017-01-19T03:57:34.185Z,1021.77
2017-01-19T03:57:55.936Z,1021.85
2017-01-19T03:58:17.667Z,1021.93
2017-01-19T03:58:39.427Z,1021.86
2017-01-19T03:59:01.163Z,1021.84
2017-01-19T03:59:22.905Z,1021.80
2017-01-19T03:59:44.643Z,1021.77
2017-01-19T04:00:06.384Z,1021.82
2017-01-19T04:00:28.138Z,1021.86
2017-01-19T04:00:49.875Z,1021.94
2017-01-19T04:01:11.632Z,1021.80
2017-01-19T04:01:33.381Z,1021.76
2017-01-19T04:01:55.124Z,1021.79
2017-01-19T04:02:16.849Z,1021.74
2017-01-19T04:02:38.586Z,1021.84
2017-01-19T04:03:00.320Z,1021.76
2017-01-19T04:03:22.053Z,1021.75
2017-01-19T04:03:43.789Z,1021.69
2017-01-19T04:04:05.533Z,1021.70
2017-01-19T04:04:27.268Z,1021.83
2017-01-19T04:04:49.012Z,1021.77
2017-01-19T04:05:10.754Z,1021.79
2017-01-19T04:05:32.500Z,1021.83
2017-01-19T04:05:54.241Z,1021.87
2017-01-19T04:06:15.988Z,1021.77
2017-01-19T04:06:37.722Z,1021.70
2017-01-19T04:06:59.464Z,1021.73
2017-01-19T04:07:21.191Z,1021.82
2017-01-19T04:07:42.922Z,1021.76
2017-01-19T04:08:04.651Z,1021.71
2017-01-19T04:08:26.395Z,1021.77
2017-01-19T04:08:48.149Z,1021.75
2017-01-19T04:09:09.902Z,1021.77
2017-01-19T04:09:31.639Z,1021.83
2017-01-19T04:09:53.380Z,1021.75
2017-01-19T04:10:15.121Z,1021.85
2017-01-19T04:10:36.996Z,1021.85
2017-01-19T04:10:58.733Z,1021.82
2017-01-19T04:11:20.465Z,1021.80
2017-01-19T04:11:42.213Z,1021.94
2017-01-19T04:12:03.953Z,1021.87
2017-01-19T04:12:25.693Z,1021.86
2017-01-19T04:12:47.490Z,1021.81
2017-01-19T04:13:09.233Z,1021.83
2017-01-19T04:13:30.969Z,1021.89
2017-01-19T04:13:52.695Z,1021.77
2017-01-19T04:14:14.450Z,1021.95
2017-01-19T04:14:36.180Z,1021.80
2017-01-19T04:14:57.912Z,1021.76
2017-01-19T04:15:19.789Z,1021.81
2017-01-19T04:15:41.539Z,1021.91
2017-01-19T04:16:03.282Z,1021.85
2017-01-19T04:16:25.037Z,1021.93
2017-01-19T04:16:46.766Z,1021.92
2017-01-19T04:17:08.513Z,1021.77
2017-01-19T04:17:30.255Z,1021.78
2017-01-19T04:17:52.002Z,1021.93
2017-01-19T04:18:13.743Z,1021.92
2017-01-19T04:18:35.489Z,1021.86
2017-01-19T04:18:57.218Z,1021.92
2017-01-19T04:19:18.956Z,1021.87
2017-01-19T04:19:40.712Z,1021.84
2017-01-19T04:20:02.513Z,1021.85
2017-01-19T04:20:24.261Z,1021.88
2017-01-19T04:20:46.005Z,1021.83
2017-01-19T04:21:07.752Z,1021.85
2017-01-19T04:21:29.490Z,1021.92
2017-01-19T04:21:55.998Z,1021.81
2017-01-19T04:22:17.723Z,1021.89
2017-01-19T04:22:39.456Z,1021.88
2017-01-19T04:23:01.202Z,1021.89
2017-01-19T04:23:22.947Z,1021.88
2017-01-19T04:23:44.687Z,1021.85
2017-01-19T04:24:06.419Z,1021.88
2017-01-19T04:24:28.160Z,1021.80
2017-01-19T04:24:49.891Z,1021.81
2017-01-19T04:25:11.629Z,1021.78
2017-01-19T04:25:33.409Z,1021.77
2017-01-19T04:25:55.150Z,1021.76
2017-01-19T04:26:16.889Z,1021.80
2017-01-19T04:26:38.629Z,1021.79
2017-01-19T04:27:00.373Z,1021.83
2017-01-19T04:27:22.109Z,1021.78
2017-01-19T04:27:43.851Z,1021.78
2017-01-19T04:28:05.595Z,1021.82
2017-01-19T04:28:27.349Z,1021.84
2017-01-19T04:28:49.087Z,1021.81
2017-01-19T04:29:10.821Z,1021.85
2017-01-19T04:29:32.556Z,1021.80
2017-01-19T04:29:54.290Z,1021.80
2017-01-19T04:30:16.018Z,1021.85
2017-01-19T04:30:37.759Z,1021.85
2017-01-19T04:30:59.497Z,1021.89
2017-01-19T04:31:21.236Z,1021.83
2017-01-19T04:31:42.966Z,1021.92
2017-01-19T04:32:04.721Z,1021.85
2017-01-19T04:32:26.458Z,1021.85
2017-01-19T04:32:48.190Z,1021.90
2017-01-19T04:33:09.924Z,1021.88
2017-01-19T04:33:31.687Z,1021.91
2017-01-19T04:33:53.414Z,1021.85
2017-01-19T04:34:15.165Z,1021.88
2017-01-19T04:34:39.562Z,1021.86
2017-01-19T04:35:01.298Z,1021.84
2017-01-19T04:35:23.027Z,1021.90
2017-01-19T04:35:44.775Z,1021.85
2017-01-19T04:36:06.518Z,1021.87
2017-01-19T04:36:28.256Z,1021.89
2017-01-19T04:36:49.993Z,1021.82
2017-01-19T04:37:11.747Z,1021.85
2017-01-19T04:37:33.484Z,1021.86
2017-01-19T04:37:55.229Z,1021.76
2017-01-19T04:38:16.964Z,1021.76
2017-01-19T04:38:38.706Z,1021.77
2017-01-19T04:39:00.452Z,1021.81
2017-01-19T04:39:22.190Z,1021.75
2017-01-19T04:39:43.918Z,1021.76
2017-01-19T04:40:05.660Z,1021.78
2017-01-19T04:40:27.394Z,1021.83
2017-01-19T04:40:49.130Z,1021.73
2017-01-19T04:41:10.861Z,1021.79
2017-01-19T04:41:32.618Z,1021.89
2017-01-19T04:41:54.357Z,1021.75
2017-01-19T04:42:18.987Z,1021.77